createdAt,value
2023-04-29T00:00:42.139Z,356.00
2023-04-29T00:01:41.524Z,357.00
2023-04-29T00:02:41.751Z,355.00
2023-04-29T00:03:41.804Z,357.00
2023-04-29T00:04:41.969Z,358.00
2023-04-29T00:05:41.884Z,356.00
2023-04-29T00:06:41.774Z,356.00
2023-04-29T00:07:41.819Z,357.00
2023-04-29T00:08:41.923Z,357.00
2023-04-29T00:09:41.918Z,355.00
2023-04-29T00:10:41.958Z,357.00
2023-04-29T00:11:42.062Z,358.00
2023-04-29T00:12:42.091Z,358.00
2023-04-29T00:13:42.170Z,360.00
2023-04-29T00:14:42.171Z,360.00
2023-04-29T00:15:42.238Z,360.00
2023-04-29T00:16:42.320Z,357.00
2023-04-29T00:17:42.350Z,355.00
2023-04-29T00:18:42.395Z,357.00
2023-04-29T00:19:42.455Z,358.00
2023-04-29T00:20:42.478Z,360.00
2023-04-29T00:21:42.674Z,361.00
2023-04-29T00:22:42.632Z,361.00
2023-04-29T00:23:42.679Z,360.00
2023-04-29T00:24:42.720Z,360.00
2023-04-29T00:25:42.761Z,358.00
2023-04-29T00:26:42.806Z,358.00
2023-04-29T00:27:42.869Z,357.00
2023-04-29T00:28:43.001Z,357.00
2023-04-29T00:29:42.993Z,356.00
2023-04-29T00:30:43.042Z,356.00
2023-04-29T00:31:43.072Z,356.00
2023-04-29T00:32:43.163Z,358.00
2023-04-29T00:33:43.209Z,359.00
2023-04-29T00:34:43.290Z,360.00
2023-04-29T00:35:43.304Z,359.00
2023-04-29T00:36:43.411Z,357.00
2023-04-29T00:37:43.405Z,356.00
2023-04-29T00:38:43.456Z,356.00
2023-04-29T00:39:43.491Z,357.00
2023-04-29T00:40:43.605Z,356.00
2023-04-29T00:41:43.622Z,358.00
2023-04-29T00:42:43.655Z,357.00
2023-04-29T00:43:43.689Z,356.00
2023-04-29T00:44:43.778Z,359.00
2023-04-29T00:45:43.880Z,362.00
2023-04-29T00:46:43.939Z,361.00
2023-04-29T00:47:43.902Z,363.00
2023-04-29T00:48:43.986Z,365.00
2023-04-29T00:49:44.051Z,366.00
2023-04-29T00:50:44.126Z,368.00
2023-04-29T00:51:44.218Z,369.00
2023-04-29T00:52:44.233Z,366.00
2023-04-29T00:53:44.233Z,363.00
2023-04-29T00:54:44.339Z,365.00
2023-04-29T00:55:44.454Z,363.00
2023-04-29T00:56:44.398Z,362.00
2023-04-29T00:57:44.468Z,363.00
2023-04-29T00:58:44.504Z,363.00
2023-04-29T00:59:44.569Z,364.00
2023-04-29T01:00:44.630Z,363.00
2023-04-29T01:01:44.743Z,363.00
2023-04-29T01:02:44.759Z,364.00
2023-04-29T01:03:44.931Z,366.00
2023-04-29T01:04:44.882Z,365.00
2023-04-29T01:05:44.891Z,367.00
2023-04-29T01:06:44.928Z,366.00
2023-04-29T01:07:45.040Z,365.00
2023-04-29T01:08:45.106Z,366.00
2023-04-29T01:09:45.112Z,367.00
2023-04-29T01:10:45.213Z,368.00
2023-04-29T01:11:45.214Z,368.00
2023-04-29T01:12:45.284Z,368.00
2023-04-29T01:13:45.331Z,366.00
2023-04-29T01:14:45.394Z,365.00
2023-04-29T01:15:45.476Z,363.00
2023-04-29T01:16:45.524Z,362.00
2023-04-29T01:17:45.601Z,365.00
2023-04-29T01:18:45.636Z,363.00
2023-04-29T01:19:45.681Z,363.00
2023-04-29T01:20:45.737Z,362.00
2023-04-29T01:21:45.794Z,362.00
2023-04-29T01:22:45.890Z,363.00
2023-04-29T01:23:45.930Z,361.00
2023-04-29T01:24:45.964Z,359.00
2023-04-29T01:25:46.027Z,358.00
2023-04-29T01:26:46.055Z,359.00
2023-04-29T01:27:46.143Z,360.00
2023-04-29T01:28:46.216Z,361.00
2023-04-29T01:29:46.255Z,362.00
2023-04-29T01:30:46.308Z,362.00
2023-04-29T01:31:46.409Z,362.00
2023-04-29T01:32:46.464Z,361.00
2023-04-29T01:33:46.491Z,359.00
2023-04-29T01:34:46.528Z,359.00
2023-04-29T01:35:46.621Z,359.00
2023-04-29T01:36:46.672Z,362.00
2023-04-29T01:37:46.726Z,365.00
2023-04-29T01:38:46.776Z,365.00
2023-04-29T01:39:46.797Z,366.00
2023-04-29T01:40:46.910Z,364.00
2023-04-29T01:41:46.920Z,361.00
2023-04-29T01:42:47.001Z,357.00
2023-04-29T01:43:47.077Z,360.00
2023-04-29T01:44:47.115Z,363.00
2023-04-29T01:45:47.193Z,360.00
2023-04-29T01:46:47.307Z,359.00
2023-04-29T01:47:47.344Z,358.00
2023-04-29T01:48:47.361Z,357.00
2023-04-29T01:49:47.428Z,359.00
2023-04-29T01:50:47.486Z,362.00
2023-04-29T01:51:47.510Z,362.00
2023-04-29T01:52:47.601Z,363.00
2023-04-29T01:53:47.658Z,361.00
2023-04-29T01:54:47.710Z,361.00
2023-04-29T01:55:47.772Z,363.00
2023-04-29T01:56:47.798Z,362.00
2023-04-29T01:57:47.890Z,362.00
2023-04-29T01:58:47.949Z,361.00
2023-04-29T01:59:48.005Z,357.00
2023-04-29T02:00:48.101Z,353.00
2023-04-29T02:01:48.125Z,352.00
2023-04-29T02:02:48.267Z,353.00
2023-04-29T02:03:48.325Z,354.00
2023-04-29T02:04:48.311Z,355.00
2023-04-29T02:05:48.350Z,356.00
2023-04-29T02:06:48.351Z,355.00
2023-04-29T02:07:48.396Z,354.00
2023-04-29T02:08:48.483Z,354.00
2023-04-29T02:09:48.528Z,354.00
2023-04-29T02:10:48.602Z,355.00
2023-04-29T02:11:48.655Z,354.00
2023-04-29T02:12:48.683Z,354.00
2023-04-29T02:13:48.765Z,353.00
2023-04-29T02:14:48.829Z,352.00
2023-04-29T02:15:48.887Z,351.00
2023-04-29T02:16:48.990Z,350.00
2023-04-29T02:17:49.011Z,350.00
2023-04-29T02:18:49.058Z,349.00
2023-04-29T02:19:49.094Z,352.00
2023-04-29T02:20:49.175Z,353.00
2023-04-29T02:21:49.229Z,356.00
2023-04-29T02:22:49.291Z,356.00
2023-04-29T02:23:49.336Z,356.00
2023-04-29T02:24:49.413Z,356.00
2023-04-29T02:25:49.404Z,356.00
2023-04-29T02:26:49.525Z,354.00
2023-04-29T02:27:49.577Z,353.00
2023-04-29T02:28:49.578Z,351.00
2023-04-29T02:29:49.725Z,354.00
2023-04-29T02:30:49.718Z,357.00
2023-04-29T02:31:49.791Z,355.00
2023-04-29T02:32:49.889Z,355.00
2023-04-29T02:33:49.913Z,357.00
2023-04-29T02:34:49.927Z,357.00
2023-04-29T02:35:49.995Z,358.00
2023-04-29T02:36:50.041Z,358.00
2023-04-29T02:37:50.105Z,356.00
2023-04-29T02:38:50.163Z,358.00
2023-04-29T02:39:50.340Z,359.00
2023-04-29T02:40:50.379Z,359.00
2023-04-29T02:41:50.336Z,357.00
2023-04-29T02:42:50.397Z,355.00
2023-04-29T02:43:50.468Z,356.00
2023-04-29T02:44:50.512Z,357.00
2023-04-29T02:45:50.632Z,358.00
2023-04-29T02:46:50.628Z,358.00
2023-04-29T02:47:50.750Z,358.00
2023-04-29T02:48:50.738Z,359.00
2023-04-29T02:49:51.014Z,359.00
2023-04-29T02:50:50.836Z,360.00
2023-04-29T02:51:50.884Z,361.00
2023-04-29T02:52:50.948Z,362.00
2023-04-29T02:53:50.998Z,362.00
2023-04-29T02:54:51.089Z,364.00
2023-04-29T02:55:51.152Z,366.00
2023-04-29T02:56:51.232Z,366.00
2023-04-29T02:57:51.237Z,364.00
2023-04-29T02:58:51.302Z,363.00
2023-04-29T02:59:51.493Z,362.00
2023-04-29T03:00:51.407Z,366.00
2023-04-29T03:01:51.467Z,363.00
2023-04-29T03:02:51.677Z,362.00
2023-04-29T03:03:51.680Z,360.00
2023-04-29T03:04:51.625Z,359.00
2023-04-29T03:05:51.679Z,359.00
2023-04-29T03:06:51.724Z,359.00
2023-04-29T03:07:51.796Z,358.00
2023-04-29T03:08:51.890Z,358.00
2023-04-29T03:09:52.156Z,356.00
2023-04-29T03:10:51.978Z,356.00
2023-04-29T03:11:52.033Z,357.00
2023-04-29T03:12:52.050Z,360.00
2023-04-29T03:13:52.100Z,358.00
2023-04-29T03:14:52.124Z,356.00
2023-04-29T03:15:52.217Z,356.00
2023-04-29T03:16:52.310Z,357.00
2023-04-29T03:17:52.374Z,356.00
2023-04-29T03:18:52.368Z,354.00
2023-04-29T03:19:52.719Z,353.00
2023-04-29T03:20:52.495Z,352.00
2023-04-29T03:21:53.839Z,353.00
2023-04-29T03:22:52.626Z,353.00
2023-04-29T03:23:52.676Z,355.00
2023-04-29T03:24:52.710Z,356.00
2023-04-29T03:25:52.793Z,357.00
2023-04-29T03:26:52.845Z,357.00
2023-04-29T03:27:52.895Z,358.00
2023-04-29T03:28:52.961Z,357.00
2023-04-29T03:29:53.291Z,358.00
2023-04-29T03:30:53.091Z,361.00
2023-04-29T03:31:53.175Z,360.00
2023-04-29T03:32:53.224Z,359.00
2023-04-29T03:33:53.185Z,360.00
2023-04-29T03:34:53.306Z,359.00
2023-04-29T03:35:53.352Z,357.00
2023-04-29T03:36:53.420Z,357.00
2023-04-29T03:37:53.422Z,355.00
2023-04-29T03:38:53.490Z,354.00
2023-04-29T03:39:53.935Z,356.00
2023-04-29T03:40:53.649Z,360.00
2023-04-29T03:41:53.664Z,360.00
2023-04-29T03:42:53.738Z,361.00
2023-04-29T03:43:53.786Z,360.00
2023-04-29T03:44:53.818Z,358.00
2023-04-29T03:45:53.992Z,361.00
2023-04-29T03:46:53.995Z,363.00
2023-04-29T03:47:54.037Z,363.00
2023-04-29T03:48:54.056Z,364.00
2023-04-29T03:49:54.319Z,363.00
2023-04-29T03:50:54.170Z,361.00
2023-04-29T03:51:54.241Z,360.00
2023-04-29T03:52:54.281Z,360.00
2023-04-29T03:53:54.343Z,359.00
2023-04-29T03:54:54.408Z,362.00
2023-04-29T03:55:54.458Z,361.00
2023-04-29T03:56:55.974Z,363.00
2023-04-29T03:57:54.589Z,361.00
2023-04-29T03:58:54.636Z,360.00
2023-04-29T03:59:54.906Z,361.00
2023-04-29T04:00:54.752Z,360.00
2023-04-29T04:01:54.846Z,360.00
2023-04-29T04:02:54.961Z,359.00
2023-04-29T04:03:55.018Z,358.00
2023-04-29T04:04:55.119Z,356.00
2023-04-29T04:05:55.106Z,354.00
2023-04-29T04:06:55.147Z,354.00
2023-04-29T04:07:55.197Z,355.00
2023-04-29T04:08:55.234Z,356.00
2023-04-29T04:09:55.525Z,357.00
2023-04-29T04:10:55.353Z,357.00
2023-04-29T04:11:55.444Z,357.00
2023-04-29T04:12:55.505Z,355.00
2023-04-29T04:13:55.522Z,355.00
2023-04-29T04:14:55.549Z,356.00
2023-04-29T04:15:55.657Z,357.00
2023-04-29T04:16:55.676Z,357.00
2023-04-29T04:17:55.786Z,357.00
2023-04-29T04:18:55.792Z,357.00
2023-04-29T04:19:55.858Z,358.00
2023-04-29T04:20:55.899Z,361.00
2023-04-29T04:21:55.972Z,359.00
2023-04-29T04:22:56.028Z,361.00
2023-04-29T04:23:56.113Z,360.00
2023-04-29T04:24:56.136Z,362.00
2023-04-29T04:25:56.206Z,361.00
2023-04-29T04:26:56.247Z,359.00
2023-04-29T04:27:56.292Z,355.00
2023-04-29T04:28:56.406Z,354.00
2023-04-29T04:29:56.447Z,352.00
2023-04-29T04:30:56.489Z,352.00
2023-04-29T04:31:56.602Z,351.00
2023-04-29T04:32:56.673Z,351.00
2023-04-29T04:33:56.639Z,352.00
2023-04-29T04:34:56.721Z,353.00
2023-04-29T04:35:56.802Z,350.00
2023-04-29T04:36:56.857Z,351.00
2023-04-29T04:37:56.905Z,351.00
2023-04-29T04:38:56.986Z,351.00
2023-04-29T04:39:59.746Z,352.00
2023-04-29T04:40:57.034Z,349.00
2023-04-29T04:41:57.038Z,351.00
2023-04-29T04:42:56.998Z,353.00
2023-04-29T04:43:57.007Z,353.00
2023-04-29T04:44:57.016Z,355.00
2023-04-29T04:45:56.985Z,354.00
2023-04-29T04:46:56.962Z,354.00
2023-04-29T04:47:56.991Z,353.00
2023-04-29T04:48:56.933Z,354.00
2023-04-29T04:49:56.951Z,354.00
2023-04-29T04:50:56.940Z,353.00
2023-04-29T04:51:56.948Z,354.00
2023-04-29T04:52:56.924Z,356.00
2023-04-29T04:53:56.925Z,356.00
2023-04-29T04:54:56.931Z,355.00
2023-04-29T04:55:56.892Z,352.00
2023-04-29T04:56:56.868Z,351.00
2023-04-29T04:57:56.884Z,352.00
2023-04-29T04:58:56.884Z,353.00
2023-04-29T04:59:56.865Z,353.00
2023-04-29T05:00:56.868Z,354.00
2023-04-29T05:01:56.890Z,353.00
2023-04-29T05:02:56.965Z,352.00
2023-04-29T05:03:56.957Z,351.00
2023-04-29T05:04:56.805Z,351.00
2023-04-29T05:05:56.834Z,354.00
2023-04-29T05:06:56.800Z,355.00
2023-04-29T05:07:56.804Z,356.00
2023-04-29T05:08:56.797Z,355.00
2023-04-29T05:09:56.786Z,357.00
2023-04-29T05:10:56.827Z,358.00
2023-04-29T05:11:56.797Z,357.00
2023-04-29T05:12:56.802Z,355.00
2023-04-29T05:13:56.748Z,355.00
2023-04-29T05:14:56.748Z,355.00
2023-04-29T05:15:56.741Z,353.00
2023-04-29T05:16:56.801Z,353.00
2023-04-29T05:17:56.869Z,355.00
2023-04-29T05:18:56.896Z,357.00
2023-04-29T05:19:56.976Z,357.00
2023-04-29T05:20:57.014Z,356.00
2023-04-29T05:21:57.103Z,353.00
2023-04-29T05:22:57.149Z,353.00
2023-04-29T05:23:57.233Z,354.00
2023-04-29T05:24:57.280Z,353.00
2023-04-29T05:25:57.394Z,352.00
2023-04-29T05:26:57.427Z,353.00
2023-04-29T05:27:57.449Z,351.00
2023-04-29T05:28:57.547Z,352.00
2023-04-29T05:29:57.606Z,352.00
2023-04-29T05:30:57.671Z,353.00
2023-04-29T05:31:57.707Z,351.00
2023-04-29T05:32:57.815Z,351.00
2023-04-29T05:33:57.799Z,349.00
2023-04-29T05:34:57.908Z,346.00
2023-04-29T05:35:57.957Z,344.00
2023-04-29T05:36:57.994Z,342.00
2023-04-29T05:37:58.067Z,341.00
2023-04-29T05:38:58.109Z,341.00
2023-04-29T05:39:58.195Z,342.00
2023-04-29T05:40:58.258Z,342.00
2023-04-29T05:41:58.298Z,343.00
2023-04-29T05:42:58.356Z,343.00
2023-04-29T05:43:58.417Z,343.00
2023-04-29T05:44:58.491Z,345.00
2023-04-29T05:45:58.569Z,346.00
2023-04-29T05:46:58.628Z,345.00
2023-04-29T05:47:58.673Z,345.00
2023-04-29T05:48:58.742Z,347.00
2023-04-29T05:49:58.761Z,346.00
2023-04-29T05:50:58.844Z,347.00
2023-04-29T05:51:58.953Z,346.00
2023-04-29T05:52:58.957Z,347.00
2023-04-29T05:53:59.000Z,350.00
2023-04-29T05:54:59.044Z,350.00
2023-04-29T05:55:59.109Z,351.00
2023-04-29T05:56:59.146Z,352.00
2023-04-29T05:57:59.246Z,355.00
2023-04-29T05:58:59.284Z,356.00
2023-04-29T05:59:59.376Z,357.00
2023-04-29T06:01:00.050Z,357.00
2023-04-29T06:01:59.444Z,356.00
2023-04-29T06:02:59.668Z,355.00
2023-04-29T06:03:59.848Z,357.00
2023-04-29T06:04:59.792Z,359.00
2023-04-29T06:05:59.910Z,360.00
2023-04-29T06:06:59.783Z,359.00
2023-04-29T06:07:59.816Z,357.00
2023-04-29T06:08:59.915Z,357.00
2023-04-29T06:09:59.989Z,357.00
2023-04-29T06:11:00.015Z,354.00
2023-04-29T06:12:00.041Z,353.00
2023-04-29T06:13:00.155Z,354.00
2023-04-29T06:14:00.188Z,351.00
2023-04-29T06:15:00.245Z,353.00
2023-04-29T06:16:00.349Z,355.00
2023-04-29T06:17:00.318Z,355.00
2023-04-29T06:18:00.492Z,356.00
2023-04-29T06:19:00.453Z,355.00
2023-04-29T06:20:00.497Z,355.00
2023-04-29T06:21:00.543Z,355.00
2023-04-29T06:22:00.642Z,356.00
2023-04-29T06:23:00.659Z,357.00
2023-04-29T06:24:00.707Z,358.00
2023-04-29T06:25:00.785Z,357.00
2023-04-29T06:26:00.865Z,356.00
2023-04-29T06:27:00.892Z,356.00
2023-04-29T06:28:00.986Z,356.00
2023-04-29T06:29:01.014Z,358.00
2023-04-29T06:30:01.072Z,357.00
2023-04-29T06:31:01.133Z,357.00
2023-04-29T06:32:01.310Z,354.00
2023-04-29T06:33:01.243Z,354.00
2023-04-29T06:34:01.305Z,352.00
2023-04-29T06:35:01.368Z,350.00
2023-04-29T06:36:01.394Z,348.00
2023-04-29T06:37:01.449Z,347.00
2023-04-29T06:38:01.498Z,348.00
2023-04-29T06:39:01.559Z,349.00
2023-04-29T06:40:01.589Z,349.00
2023-04-29T06:41:01.667Z,347.00
2023-04-29T06:42:01.679Z,345.00
2023-04-29T06:43:01.740Z,345.00
2023-04-29T06:44:01.805Z,346.00
2023-04-29T06:45:01.853Z,347.00
2023-04-29T06:46:01.863Z,346.00
2023-04-29T06:47:01.914Z,347.00
2023-04-29T06:48:01.956Z,348.00
2023-04-29T06:49:01.986Z,349.00
2023-04-29T06:50:01.977Z,350.00
2023-04-29T06:51:02.058Z,350.00
2023-04-29T06:52:02.128Z,350.00
2023-04-29T06:53:02.123Z,351.00
2023-04-29T06:54:02.156Z,348.00
2023-04-29T06:55:02.191Z,346.00
2023-04-29T06:56:02.244Z,346.00
2023-04-29T06:57:02.256Z,347.00
2023-04-29T06:58:02.276Z,346.00
2023-04-29T06:59:02.326Z,345.00
2023-04-29T07:00:02.352Z,347.00
2023-04-29T07:01:02.457Z,348.00
2023-04-29T07:02:02.403Z,348.00
2023-04-29T07:03:02.546Z,347.00
2023-04-29T07:04:02.662Z,350.00
2023-04-29T07:05:02.522Z,348.00
2023-04-29T07:06:02.569Z,347.00
2023-04-29T07:07:02.580Z,348.00
2023-04-29T07:08:02.617Z,347.00
2023-04-29T07:09:02.609Z,347.00
2023-04-29T07:10:02.641Z,348.00
2023-04-29T07:11:02.758Z,347.00
2023-04-29T07:12:02.735Z,347.00
2023-04-29T07:13:02.762Z,347.00
2023-04-29T07:14:02.857Z,345.00
2023-04-29T07:15:02.808Z,344.00
2023-04-29T07:16:02.827Z,344.00
2023-04-29T07:17:02.963Z,344.00
2023-04-29T07:18:02.979Z,346.00
2023-04-29T07:19:02.888Z,347.00
2023-04-29T07:20:03.011Z,348.00
2023-04-29T07:21:02.967Z,346.00
2023-04-29T07:22:02.939Z,348.00
2023-04-29T07:23:02.948Z,347.00
2023-04-29T07:24:02.954Z,347.00
2023-04-29T07:25:02.974Z,348.00
2023-04-29T07:26:02.970Z,346.00
2023-04-29T07:27:03.019Z,346.00
2023-04-29T07:28:02.997Z,346.00
2023-04-29T07:29:02.983Z,345.00
2023-04-29T07:30:03.014Z,345.00
2023-04-29T07:31:03.152Z,346.00
2023-04-29T07:32:03.061Z,347.00
2023-04-29T07:33:03.136Z,346.00
2023-04-29T07:34:03.110Z,347.00
2023-04-29T07:35:03.103Z,347.00
2023-04-29T07:36:03.123Z,346.00
2023-04-29T07:37:03.083Z,346.00
2023-04-29T07:38:03.172Z,344.00
2023-04-29T07:39:03.137Z,345.00
2023-04-29T07:40:03.135Z,346.00
2023-04-29T07:41:03.146Z,346.00
2023-04-29T07:42:03.195Z,346.00
2023-04-29T07:43:03.159Z,343.00
2023-04-29T07:44:03.160Z,345.00
2023-04-29T07:45:03.142Z,345.00
2023-04-29T07:46:03.212Z,346.00
2023-04-29T07:47:03.201Z,346.00
2023-04-29T07:48:03.172Z,345.00
2023-04-29T07:49:03.227Z,345.00
2023-04-29T07:50:03.230Z,345.00
2023-04-29T07:51:03.143Z,344.00
2023-04-29T07:52:03.170Z,345.00
2023-04-29T07:53:03.188Z,344.00
2023-04-29T07:54:03.196Z,343.00
2023-04-29T07:55:03.163Z,344.00
2023-04-29T07:56:03.190Z,343.00
2023-04-29T07:57:03.217Z,343.00
2023-04-29T07:58:03.168Z,345.00
2023-04-29T07:59:03.223Z,347.00
2023-04-29T08:00:03.234Z,344.00
2023-04-29T08:01:03.193Z,342.00
2023-04-29T08:02:03.191Z,340.00
2023-04-29T08:03:03.364Z,339.00
2023-04-29T08:04:03.314Z,340.00
2023-04-29T08:05:03.808Z,340.00
2023-04-29T08:06:03.278Z,340.00
2023-04-29T08:07:03.153Z,341.00
2023-04-29T08:08:03.191Z,338.00
2023-04-29T08:09:03.437Z,336.00
2023-04-29T08:10:03.202Z,337.00
2023-04-29T08:11:03.210Z,337.00
2023-04-29T08:12:03.184Z,339.00
2023-04-29T08:13:03.224Z,338.00
2023-04-29T08:14:03.161Z,338.00
2023-04-29T08:15:03.910Z,340.00
2023-04-29T08:16:03.173Z,341.00
2023-04-29T08:17:03.140Z,341.00
2023-04-29T08:18:03.269Z,340.00
2023-04-29T08:19:03.150Z,340.00
2023-04-29T08:20:03.316Z,342.00
2023-04-29T08:21:03.240Z,341.00
2023-04-29T08:22:03.185Z,342.00
2023-04-29T08:23:03.195Z,342.00
2023-04-29T08:24:03.160Z,341.00
2023-04-29T08:25:03.200Z,342.00
2023-04-29T08:26:03.224Z,342.00
2023-04-29T08:27:03.187Z,342.00
2023-04-29T08:28:03.224Z,343.00
2023-04-29T08:29:03.270Z,346.00
2023-04-29T08:30:03.278Z,347.00
2023-04-29T08:31:03.274Z,346.00
2023-04-29T08:32:03.368Z,345.00
2023-04-29T08:33:03.392Z,345.00
2023-04-29T08:34:03.355Z,343.00
2023-04-29T08:35:03.373Z,346.00
2023-04-29T08:36:03.456Z,346.00
2023-04-29T08:37:03.474Z,346.00
2023-04-29T08:38:03.451Z,347.00
2023-04-29T08:39:03.530Z,348.00
2023-04-29T08:40:03.621Z,348.00
2023-04-29T08:41:03.613Z,349.00
2023-04-29T08:42:03.667Z,347.00
2023-04-29T08:43:03.751Z,344.00
2023-04-29T08:44:03.752Z,343.00
2023-04-29T08:45:03.782Z,347.00
2023-04-29T08:46:03.855Z,347.00
2023-04-29T08:47:03.869Z,347.00
2023-04-29T08:48:04.076Z,344.00
2023-04-29T08:49:03.986Z,345.00
2023-04-29T08:50:04.105Z,345.00
2023-04-29T08:51:04.089Z,343.00
2023-04-29T08:52:04.202Z,342.00
2023-04-29T08:53:04.263Z,341.00
2023-04-29T08:54:04.284Z,341.00
2023-04-29T08:55:04.318Z,341.00
2023-04-29T08:56:04.389Z,340.00
2023-04-29T08:57:04.431Z,341.00
2023-04-29T08:58:04.530Z,342.00
2023-04-29T08:59:04.615Z,343.00
2023-04-29T09:00:04.634Z,342.00
2023-04-29T09:01:04.713Z,343.00
2023-04-29T09:02:04.740Z,345.00
2023-04-29T09:03:05.014Z,344.00
2023-04-29T09:04:04.932Z,344.00
2023-04-29T09:05:04.974Z,345.00
2023-04-29T09:06:04.984Z,342.00
2023-04-29T09:07:05.025Z,341.00
2023-04-29T09:08:05.088Z,340.00
2023-04-29T09:09:05.147Z,340.00
2023-04-29T09:10:05.253Z,340.00
2023-04-29T09:11:05.294Z,339.00
2023-04-29T09:12:05.364Z,341.00
2023-04-29T09:13:05.440Z,344.00
2023-04-29T09:14:05.497Z,346.00
2023-04-29T09:15:05.528Z,345.00
2023-04-29T09:16:05.622Z,345.00
2023-04-29T09:17:05.697Z,347.00
2023-04-29T09:18:05.793Z,346.00
2023-04-29T09:19:05.799Z,344.00
2023-04-29T09:20:05.861Z,347.00
2023-04-29T09:21:05.935Z,347.00
2023-04-29T09:22:05.979Z,346.00
2023-04-29T09:23:06.075Z,345.00
2023-04-29T09:24:06.130Z,345.00
2023-04-29T09:25:06.163Z,345.00
2023-04-29T09:26:06.240Z,346.00
2023-04-29T09:27:06.311Z,348.00
2023-04-29T09:28:06.336Z,346.00
2023-04-29T09:29:06.419Z,347.00
2023-04-29T09:30:06.447Z,346.00
2023-04-29T09:31:06.687Z,346.00
2023-04-29T09:32:06.778Z,344.00
2023-04-29T09:33:06.727Z,345.00
2023-04-29T09:34:06.728Z,345.00
2023-04-29T09:35:06.754Z,346.00
2023-04-29T09:36:06.881Z,346.00
2023-04-29T09:37:06.907Z,344.00
2023-04-29T09:38:06.968Z,344.00
2023-04-29T09:39:07.022Z,345.00
2023-04-29T09:40:21.836Z,346.00
2023-04-29T09:41:07.076Z,347.00
2023-04-29T09:42:07.093Z,347.00
2023-04-29T09:43:07.069Z,346.00
2023-04-29T09:44:07.059Z,346.00
2023-04-29T09:45:07.067Z,347.00
2023-04-29T09:46:07.111Z,344.00
2023-04-29T09:47:07.031Z,341.00
2023-04-29T09:48:07.109Z,341.00
2023-04-29T09:49:06.991Z,339.00
2023-04-29T09:50:07.014Z,341.00
2023-04-29T09:51:07.017Z,342.00
2023-04-29T09:53:25.966Z,347.00
2023-04-29T09:54:25.916Z,341.00
2023-04-29T09:55:25.907Z,342.00
2023-04-29T10:00:55.324Z,342.00
2023-04-29T10:01:55.383Z,337.00
2023-04-29T10:02:55.400Z,336.00
2023-04-29T10:03:55.417Z,333.00
2023-04-29T10:05:55.494Z,336.00
2023-04-29T10:06:55.518Z,337.00
2023-04-29T10:07:55.509Z,337.00
2023-04-29T10:08:55.503Z,338.00
2023-04-29T10:09:55.520Z,339.00
2023-04-29T10:10:55.526Z,339.00
2023-04-29T10:11:55.531Z,338.00
2023-04-29T10:12:55.548Z,336.00
2023-04-29T10:13:55.597Z,337.00
2023-04-29T10:14:55.902Z,336.00
2023-04-29T10:15:55.795Z,337.00
2023-04-29T10:16:55.795Z,338.00
2023-04-29T10:17:55.832Z,335.00
2023-04-29T10:18:55.978Z,335.00
2023-04-29T10:19:55.986Z,335.00
2023-04-29T10:20:56.033Z,335.00
2023-04-29T10:21:56.129Z,336.00
2023-04-29T10:22:56.159Z,335.00
2023-04-29T10:23:56.216Z,334.00
2023-04-29T10:24:56.293Z,334.00
2023-04-29T10:25:56.409Z,335.00
2023-04-29T10:26:56.403Z,333.00
2023-04-29T10:27:56.452Z,333.00
2023-04-29T10:28:56.560Z,335.00
2023-04-29T10:29:56.612Z,332.00
2023-04-29T10:30:56.696Z,331.00
2023-04-29T10:31:56.772Z,331.00
2023-04-29T10:32:56.822Z,332.00
2023-04-29T10:33:56.829Z,332.00
2023-04-29T10:34:56.928Z,330.00
2023-04-29T10:35:56.939Z,326.00
2023-04-29T10:36:57.067Z,328.00
2023-04-29T10:37:57.115Z,330.00
2023-04-29T10:38:57.191Z,330.00
2023-04-29T10:39:57.240Z,328.00
2023-04-29T10:40:57.317Z,328.00
2023-04-29T10:41:57.381Z,327.00
2023-04-29T10:42:57.429Z,327.00
2023-04-29T10:43:57.463Z,329.00
2023-04-29T10:44:57.530Z,329.00
2023-04-29T10:45:57.611Z,329.00
2023-04-29T10:46:57.699Z,328.00
2023-04-29T10:47:57.802Z,329.00
2023-04-29T10:48:57.797Z,327.00
2023-04-29T10:49:57.846Z,326.00
2023-04-29T10:50:57.938Z,327.00
2023-04-29T10:51:58.023Z,327.00
2023-04-29T10:52:58.200Z,330.00
2023-04-29T10:53:58.089Z,332.00
2023-04-29T10:54:58.200Z,333.00
2023-04-29T10:55:58.230Z,332.00
2023-04-29T10:56:58.306Z,330.00
2023-04-29T10:57:58.348Z,328.00
2023-04-29T10:58:58.397Z,328.00
2023-04-29T10:59:58.454Z,327.00
2023-04-29T11:00:58.592Z,328.00
2023-04-29T11:01:58.602Z,329.00
2023-04-29T11:02:58.745Z,328.00
2023-04-29T11:03:59.162Z,328.00
2023-04-29T11:04:58.827Z,329.00
2023-04-29T11:05:58.876Z,328.00
2023-04-29T11:06:59.005Z,330.00
2023-04-29T11:07:58.955Z,330.00
2023-04-29T11:08:59.033Z,329.00
2023-04-29T11:09:59.107Z,331.00
2023-04-29T11:10:59.151Z,331.00
2023-04-29T11:11:59.245Z,331.00
2023-04-29T11:12:59.288Z,330.00
2023-04-29T11:13:59.346Z,330.00
2023-04-29T11:14:59.405Z,332.00
2023-04-29T11:15:59.526Z,332.00
2023-04-29T11:16:59.592Z,333.00
2023-04-29T11:17:59.706Z,331.00
2023-04-29T11:18:59.667Z,332.00
2023-04-29T11:19:59.726Z,331.00
2023-04-29T11:20:59.832Z,331.00
2023-04-29T11:21:59.844Z,329.00
2023-04-29T11:22:59.925Z,328.00
2023-04-29T11:24:00.025Z,327.00
2023-04-29T11:25:00.037Z,328.00
2023-04-29T11:26:00.083Z,329.00
2023-04-29T11:27:00.166Z,330.00
2023-04-29T11:28:00.262Z,331.00
2023-04-29T11:29:00.344Z,333.00
2023-04-29T11:30:00.442Z,333.00
2023-04-29T11:31:00.469Z,332.00
2023-04-29T11:32:00.549Z,330.00
2023-04-29T11:33:00.707Z,331.00
2023-04-29T11:34:00.614Z,331.00
2023-04-29T11:35:00.644Z,332.00
2023-04-29T11:36:00.682Z,332.00
2023-04-29T11:37:00.761Z,330.00
2023-04-29T11:38:00.827Z,331.00
2023-04-29T11:39:00.841Z,330.00
2023-04-29T11:40:00.959Z,331.00
2023-04-29T11:41:00.982Z,330.00
2023-04-29T11:42:01.047Z,330.00
2023-04-29T11:43:01.093Z,329.00
2023-04-29T11:44:01.148Z,329.00
2023-04-29T11:45:01.236Z,329.00
2023-04-29T11:46:01.336Z,329.00
2023-04-29T11:47:01.347Z,330.00
2023-04-29T11:48:01.483Z,330.00
2023-04-29T11:49:01.465Z,327.00
2023-04-29T11:50:01.512Z,326.00
2023-04-29T11:51:01.609Z,325.00
2023-04-29T11:52:01.650Z,323.00
2023-04-29T11:53:01.733Z,325.00
2023-04-29T11:54:01.777Z,325.00
2023-04-29T11:55:01.885Z,325.00
2023-04-29T11:56:01.910Z,324.00
2023-04-29T11:57:01.985Z,324.00
2023-04-29T11:58:02.026Z,324.00
2023-04-29T11:59:02.093Z,326.00
2023-04-29T12:00:02.131Z,327.00
2023-04-29T12:01:02.196Z,328.00
2023-04-29T12:02:02.315Z,330.00
2023-04-29T12:03:02.475Z,329.00
2023-04-29T12:04:02.728Z,327.00
2023-04-29T12:05:02.925Z,327.00
2023-04-29T12:06:02.559Z,330.00
2023-04-29T12:07:02.618Z,332.00
2023-04-29T12:08:02.674Z,330.00
2023-04-29T12:09:02.700Z,330.00
2023-04-29T12:10:02.797Z,331.00
2023-04-29T12:11:02.831Z,330.00
2023-04-29T12:12:02.934Z,331.00
2023-04-29T12:13:02.957Z,331.00
2023-04-29T12:14:03.011Z,331.00
2023-04-29T12:15:03.069Z,330.00
2023-04-29T12:16:03.175Z,328.00
2023-04-29T12:17:03.248Z,330.00
2023-04-29T12:18:03.338Z,332.00
2023-04-29T12:19:03.359Z,330.00
2023-04-29T12:20:03.410Z,329.00
2023-04-29T12:21:03.460Z,329.00
2023-04-29T12:22:03.539Z,330.00
2023-04-29T12:23:03.588Z,329.00
2023-04-29T12:24:03.645Z,328.00
2023-04-29T12:25:03.720Z,327.00
2023-04-29T12:26:03.771Z,325.00
2023-04-29T12:27:03.828Z,325.00
2023-04-29T12:28:03.867Z,324.00
2023-04-29T12:29:03.983Z,322.00
2023-04-29T12:30:04.005Z,321.00
2023-04-29T12:31:04.074Z,322.00
2023-04-29T12:32:04.184Z,324.00
2023-04-29T12:33:04.273Z,323.00
2023-04-29T12:34:05.325Z,321.00
2023-04-29T12:35:04.297Z,323.00
2023-04-29T12:36:04.229Z,323.00